createdAt,value
2022-10-15T00:05:10.743Z,76.17
2022-10-15T00:10:42.456Z,76.39
2022-10-15T00:16:14.315Z,76.89
2022-10-15T00:21:46.407Z,77.06
2022-10-15T00:27:18.141Z,77.24
2022-10-15T00:32:49.753Z,77.36
2022-10-15T00:38:21.475Z,77.48
2022-10-15T00:46:15.193Z,77.55
2022-10-15T00:51:46.837Z,77.56
2022-10-15T00:57:18.550Z,77.41
2022-10-15T01:13:48.921Z,77.66
2022-10-15T01:19:20.275Z,77.64
2022-10-15T01:24:52.370Z,77.46
2022-10-15T01:30:24.114Z,77.48
2022-10-15T01:35:56.010Z,77.47
2022-10-15T01:41:27.868Z,77.49
2022-10-15T01:46:59.699Z,77.39
2022-10-15T01:58:03.482Z,77.51
2022-10-15T02:03:35.351Z,77.40
2022-10-15T02:11:29.181Z,77.33
2022-10-15T02:17:01.286Z,77.37
2022-10-15T02:22:34.468Z,77.51
2022-10-15T02:28:06.214Z,77.44
2022-10-15T02:33:37.933Z,77.66
2022-10-15T02:39:09.611Z,77.58
2022-10-15T02:44:41.519Z,77.63
2022-10-15T02:50:13.211Z,77.60
2022-10-15T02:55:45.016Z,77.69
2022-10-15T03:01:16.967Z,77.82
2022-10-15T03:06:48.619Z,78.09
2022-10-15T03:17:52.275Z,78.27
2022-10-15T03:23:24.500Z,78.38
2022-10-15T03:28:56.139Z,78.33
2022-10-15T03:31:19.376Z,0.00
2022-10-15T03:36:51.141Z,78.58
2022-10-15T03:42:23.152Z,78.78
2022-10-15T03:47:54.904Z,78.76
2022-10-15T03:53:26.619Z,78.92
2022-10-15T03:58:58.574Z,78.98
2022-10-15T04:04:30.039Z,78.89
2022-10-15T04:10:02.044Z,78.98
2022-10-15T04:15:33.819Z,79.00
2022-10-15T04:21:05.566Z,79.21
2022-10-15T04:26:37.511Z,79.44
2022-10-15T04:32:09.257Z,79.53
2022-10-15T04:37:41.059Z,79.51
2022-10-15T04:43:13.269Z,79.58
2022-10-15T04:48:44.894Z,79.63
2022-10-15T04:54:17.025Z,79.64
2022-10-15T04:59:51.445Z,79.71
2022-10-15T05:05:20.337Z,79.88
2022-10-15T05:10:52.107Z,80.45
2022-10-15T05:16:24.022Z,80.84
2022-10-15T05:21:55.630Z,80.83
2022-10-15T05:27:27.515Z,80.93
2022-10-15T05:32:59.501Z,80.98
2022-10-15T05:38:31.247Z,81.06
2022-10-15T05:44:03.180Z,80.88
2022-10-15T05:49:34.799Z,81.06
2022-10-15T05:55:06.494Z,81.03
2022-10-15T06:00:38.236Z,80.99
2022-10-15T06:06:09.778Z,80.99
2022-10-15T06:11:41.709Z,81.04
2022-10-15T06:17:13.441Z,80.92
2022-10-15T06:22:45.406Z,80.89
2022-10-15T06:28:17.040Z,80.93
2022-10-15T06:33:48.797Z,80.92
2022-10-15T06:39:20.421Z,80.86
2022-10-15T06:44:52.419Z,80.79
2022-10-15T06:50:24.391Z,80.80
2022-10-15T06:55:56.221Z,80.66
2022-10-15T07:01:28.044Z,80.65
2022-10-15T07:06:59.666Z,80.44
2022-10-15T07:12:31.753Z,80.37
2022-10-15T07:18:03.413Z,80.09
2022-10-15T07:23:35.020Z,79.90
2022-10-15T07:29:06.618Z,79.53
2022-10-15T07:34:38.320Z,79.38
2022-10-15T07:40:10.276Z,79.06
2022-10-15T07:45:42.056Z,78.93
2022-10-15T07:51:13.863Z,78.51
2022-10-15T07:56:45.222Z,78.26
2022-10-15T08:02:16.998Z,78.06
2022-10-15T08:13:18.006Z,77.33
2022-10-15T08:18:49.732Z,77.05
2022-10-15T08:24:21.499Z,76.43
2022-10-15T08:29:53.206Z,76.29
2022-10-15T08:35:25.054Z,76.12
2022-10-15T08:40:56.742Z,75.91
2022-10-15T08:46:28.618Z,75.42
2022-10-15T08:52:00.298Z,75.03
2022-10-15T09:03:03.752Z,75.29
2022-10-15T09:08:36.017Z,75.08
2022-10-15T09:14:10.272Z,73.95
2022-10-15T09:36:19.834Z,73.88
2022-10-15T09:41:51.397Z,74.00
2022-10-15T09:47:23.378Z,74.20
2022-10-15T09:52:55.109Z,74.30
2022-10-15T09:58:26.911Z,73.73
2022-10-15T10:09:30.309Z,72.38
2022-10-15T10:20:34.426Z,70.94
2022-10-15T10:26:06.069Z,70.65
2022-10-15T10:31:37.918Z,69.66
2022-10-15T10:37:09.707Z,67.99
2022-10-15T10:42:41.356Z,65.27
2022-10-15T10:48:13.184Z,64.74
2022-10-15T10:53:44.985Z,61.64
2022-10-15T10:59:16.902Z,60.77
2022-10-15T11:07:09.089Z,0.00
2022-10-15T11:12:40.966Z,59.40
2022-10-15T11:18:13.023Z,59.67
2022-10-15T11:23:45.031Z,56.89
2022-10-15T11:29:16.732Z,57.03
2022-10-15T11:34:48.622Z,56.81
2022-10-15T11:40:20.511Z,56.64
2022-10-15T11:45:52.283Z,56.46
2022-10-15T11:51:23.590Z,56.82
2022-10-15T11:56:55.211Z,56.16
2022-10-15T12:02:27.061Z,56.13
2022-10-15T12:07:58.976Z,55.07
2022-10-15T12:13:30.355Z,55.23
2022-10-15T12:19:02.508Z,54.80
2022-10-15T12:24:34.415Z,54.23
2022-10-15T12:30:06.267Z,54.66
2022-10-15T12:35:38.273Z,54.96
2022-10-15T12:41:09.821Z,55.27
2022-10-15T12:46:41.508Z,54.71
2022-10-15T12:52:13.562Z,55.88
2022-10-15T12:57:45.080Z,56.38
2022-10-15T13:03:16.764Z,57.36
2022-10-15T13:08:48.284Z,57.61
2022-10-15T13:14:19.910Z,58.20
2022-10-15T13:19:51.321Z,58.08
2022-10-15T13:25:23.413Z,57.93
2022-10-15T13:30:56.349Z,57.91
2022-10-15T13:36:28.265Z,57.81
2022-10-15T13:41:59.902Z,57.82
2022-10-15T13:47:33.492Z,57.45
2022-10-15T13:53:05.172Z,57.67
2022-10-15T13:58:36.754Z,57.97
2022-10-15T14:04:08.864Z,58.31
2022-10-15T14:09:40.626Z,58.51
2022-10-15T14:15:17.821Z,58.62
2022-10-15T14:20:51.433Z,58.42
2022-10-15T14:26:22.852Z,58.16
2022-10-15T14:31:54.551Z,58.25
2022-10-15T14:37:26.327Z,58.55
2022-10-15T14:42:58.149Z,58.71
2022-10-15T14:48:29.756Z,58.93
2022-10-15T14:54:01.653Z,59.16
2022-10-15T14:59:33.644Z,58.83
2022-10-15T15:05:05.682Z,58.27
2022-10-15T15:10:38.372Z,58.06
2022-10-15T15:16:09.940Z,57.84
2022-10-15T15:21:41.751Z,57.78
2022-10-15T15:27:13.399Z,58.06
2022-10-15T15:32:45.286Z,58.19
2022-10-15T15:38:17.117Z,58.65
2022-10-15T15:43:48.804Z,58.76
2022-10-15T15:49:20.611Z,58.80
2022-10-15T15:54:52.354Z,58.95
2022-10-15T16:00:24.103Z,59.14
2022-10-15T16:05:56.060Z,59.27
2022-10-15T16:11:27.762Z,59.34
2022-10-15T16:16:59.876Z,59.41
2022-10-15T16:22:31.717Z,59.57
2022-10-15T16:28:03.368Z,59.74
2022-10-15T16:33:35.158Z,59.85
2022-10-15T16:39:06.828Z,59.92
2022-10-15T16:44:38.837Z,60.03
2022-10-15T16:50:10.754Z,60.03
2022-10-15T16:55:42.440Z,60.06
2022-10-15T17:01:13.972Z,60.04
2022-10-15T17:12:15.349Z,61.38
2022-10-15T17:17:47.222Z,61.72
2022-10-15T17:23:18.964Z,61.85
2022-10-15T17:28:50.828Z,62.05
2022-10-15T17:34:22.722Z,62.19
2022-10-15T17:39:54.754Z,62.36
2022-10-15T17:45:26.355Z,62.45
2022-10-15T17:50:58.140Z,62.64
2022-10-15T18:02:00.351Z,63.00
2022-10-15T18:07:31.111Z,63.11
2022-10-15T18:13:03.742Z,63.18
2022-10-15T18:18:35.383Z,63.27
2022-10-15T18:24:07.241Z,63.34
2022-10-15T18:29:39.132Z,63.42
2022-10-15T18:35:11.137Z,63.48
2022-10-15T18:40:42.802Z,63.53
2022-10-15T18:46:14.531Z,63.61
2022-10-15T18:51:46.884Z,63.69
2022-10-15T18:57:18.970Z,63.79
2022-10-15T19:02:50.759Z,63.91
2022-10-15T19:08:22.435Z,63.92
2022-10-15T19:13:54.006Z,64.01
2022-10-15T19:19:25.650Z,64.06
2022-10-15T19:24:57.435Z,64.07
2022-10-15T19:30:29.357Z,64.14
2022-10-15T19:36:00.943Z,64.29
2022-10-15T19:41:32.732Z,64.43
2022-10-15T19:47:04.665Z,64.50
2022-10-15T19:52:36.546Z,64.65
2022-10-15T19:58:08.001Z,64.81
2022-10-15T20:03:39.686Z,64.91
2022-10-15T20:09:11.580Z,65.14
2022-10-15T20:14:43.282Z,65.16
2022-10-15T20:20:15.282Z,65.29
2022-10-15T20:25:48.190Z,65.35
2022-10-15T20:31:20.228Z,65.35
2022-10-15T20:36:51.870Z,65.41
2022-10-15T20:53:29.122Z,65.66
2022-10-15T20:59:00.778Z,65.69
2022-10-15T21:10:02.204Z,65.91
2022-10-15T21:15:33.892Z,66.12
2022-10-15T21:26:38.601Z,66.24
2022-10-15T21:32:10.376Z,66.29
2022-10-15T21:37:42.019Z,66.32
2022-10-15T21:48:45.662Z,66.41
2022-10-15T21:54:17.326Z,66.44
2022-10-15T21:59:48.900Z,66.57
2022-10-15T22:05:20.810Z,66.70
2022-10-15T22:10:52.527Z,67.14
2022-10-15T22:16:24.437Z,67.53
2022-10-15T22:21:56.144Z,67.82
2022-10-15T22:27:27.966Z,67.80
2022-10-15T22:32:59.722Z,67.70
2022-10-15T22:38:31.485Z,67.76
2022-10-15T22:44:03.321Z,67.81
2022-10-15T22:49:35.323Z,67.86
2022-10-15T22:55:06.868Z,67.86
2022-10-15T23:00:38.618Z,67.86
2022-10-15T23:06:10.423Z,67.92
2022-10-15T23:11:42.066Z,67.96
2022-10-15T23:17:13.918Z,68.00
2022-10-15T23:22:45.878Z,68.03
2022-10-15T23:28:17.992Z,68.07
2022-10-15T23:33:49.888Z,68.16
2022-10-15T23:39:21.626Z,68.34
2022-10-15T23:44:53.272Z,68.43
2022-10-15T23:50:25.147Z,68.67
2022-10-15T23:55:57.171Z,68.86
